East Enosburg, Vermont
Current Conditions -  °F | °C
As of 4:55 PM on Friday 28 Nov 2014 (Local Time) from KFSO Reporting Station
Overcast Overcast  
Wind Chill: -5°   Ceiling: 3600
Heat Index: -5°   Visibility: 10mi
Dew Point: -10°   Wind: 3mph
Humidity: 69%   Direction: 300°WNW
Pressure: 30.15"   Gusts: NA
Location:  44.8764°N, 72.758°W
Report Text: KFSO 282155Z AUTO 30003KT 10SM OVC036 M05/M10 A3015 RMK AO2 T10501099
Loading
Personal Weather Stations






























Interactive Weather Map New forecast layout! Learn more

10-Day Weather Forecast

Advertisements
Track Severe Weather on mobile